Time;durP1;ratioP1;P1;durP2;ratioP2;P2;SDS_P1;SDS_P2;PMS_P1;PMS_P2;Temp;Humidity;BMP_temperature;BMP_pressure;BME280_temperature;BME280_humidity;BME280_pressure;Samples;Min_cycle;Max_cycle;Signal;HPM_P1;HPM_P2
2024/01/17 00:01:39;;;;;;;;;57.00;48.00;;;;;-2.95;100.00;99108.13;6306233;20;2872151;-50
2024/01/17 00:04:08;;;;;;;;;81.50;58.00;;;;;-3.17;100.00;99107.59;6268224;20;2502408;-49
2024/01/17 00:06:37;;;;;;;;;75.50;54.00;;;;;-3.63;100.00;99110.91;6275393;20;2876338;-47
2024/01/17 00:09:07;;;;;;;;;84.67;57.67;;;;;-3.50;100.00;99099.38;6269106;20;2892051;-48
2024/01/17 00:11:37;;;;;;;;;68.00;55.67;;;;;-3.21;100.00;99105.91;6305066;20;3635054;-46
2024/01/17 00:14:07;;;;;;;;;97.67;72.33;;;;;-3.77;100.00;99108.47;6301659;20;3671075;-45
2024/01/17 00:16:37;;;;;;;;;94.83;67.83;;;;;-4.16;100.00;99102.84;6269594;20;3648288;-46
2024/01/17 00:19:05;;;;;;;;;85.00;64.00;;;;;-4.38;100.00;99099.56;6303688;20;2878410;-46
2024/01/17 00:21:34;;;;;;;;;48.67;30.33;;;;;-3.75;100.00;99096.19;6274836;20;3589878;-47
2024/01/17 00:24:04;;;;;;;;;67.00;49.00;;;;;-4.18;100.00;99099.38;6271426;20;2902435;-46
2024/01/17 00:26:33;;;;;;;;;66.50;48.00;;;;;-3.48;100.00;99086.19;6306710;20;2869065;-44
2024/01/17 00:29:02;;;;;;;;;81.33;52.00;;;;;-4.07;100.00;99091.38;6278537;20;2895191;-48
2024/01/17 00:31:32;;;;;;;;;70.67;53.33;;;;;-3.43;100.00;99080.00;6310689;20;2886736;-47
2024/01/17 00:34:01;;;;;;;;;77.33;51.67;;;;;-3.85;100.00;99084.09;6311745;20;3645101;-46
2024/01/17 00:36:31;;;;;;;;;66.67;39.33;;;;;-3.50;100.00;99086.25;6311889;20;3658646;-45
2024/01/17 00:39:01;;;;;;;;;61.33;46.33;;;;;-3.84;100.00;99077.97;6311977;20;3646183;-45
2024/01/17 00:41:31;;;;;;;;;53.33;43.00;;;;;-3.63;100.00;99076.81;6311702;20;2888885;-44
2024/01/17 00:44:04;;;;;;;;;56.00;42.33;;;;;-3.66;100.00;99087.31;6309785;20;2890952;-45
2024/01/17 00:46:33;;;;;;;;;50.00;37.00;;;;;-4.33;100.00;99089.06;6310899;20;2886258;-47
2024/01/17 00:49:03;;;;;;;;;52.67;45.33;;;;;-4.92;100.00;99084.41;6279895;20;2882722;-47
2024/01/17 00:51:33;;;;;;;;;65.67;44.67;;;;;-5.04;100.00;99096.72;6310773;20;3654475;-48
2024/01/17 00:54:03;;;;;;;;;63.33;40.00;;;;;-4.88;100.00;99098.31;6309212;20;2900868;-46
2024/01/17 00:56:35;;;;;;;;;62.00;47.00;;;;;-4.74;100.00;99098.19;6309053;20;2887843;-44
2024/01/17 00:59:05;;;;;;;;;70.33;48.67;;;;;-4.55;100.00;99098.91;6277794;20;2878392;-49
2024/01/17 01:01:35;;;;;;;;;52.00;42.67;;;;;-4.01;100.00;99093.91;6311614;20;2865990;-45
2024/01/17 01:04:03;;;;;;;;;73.00;54.50;;;;;-3.84;100.00;99094.56;6309331;20;2870063;-45
2024/01/17 01:06:33;;;;;;;;;63.33;43.67;;;;;-4.51;100.00;99082.25;6275158;20;3646111;-45
2024/01/17 01:09:03;;;;;;;;;51.33;43.67;;;;;-4.53;100.00;99076.16;6311554;20;2885734;-46
2024/01/17 01:11:32;;;;;;;;;64.50;45.00;;;;;-4.51;100.00;99079.63;6302654;20;2492008;-45
2024/01/17 01:14:01;;;;;;;;;70.00;49.00;;;;;-4.58;100.00;99072.72;6273402;20;2510707;-44
2024/01/17 01:16:30;;;;;;;;;71.00;57.00;;;;;-4.72;100.00;99076.34;6274756;20;2502471;-44
2024/01/17 01:18:58;;;;;;;;;84.33;58.67;;;;;-4.56;100.00;99078.81;6276917;20;2898261;-46
2024/01/17 01:21:28;;;;;;;;;96.33;62.33;;;;;-4.42;100.00;99082.16;6309571;20;3683660;-49
2024/01/17 01:23:56;;;;;;;;;65.50;53.00;;;;;-4.14;100.00;99089.69;6274161;20;2865874;-47
2024/01/17 01:26:25;;;;;;;;;74.00;53.00;;;;;-4.12;100.00;99090.56;6278240;20;2880602;-46
2024/01/17 01:28:53;;;;;;;;;61.00;49.00;;;;;-4.30;100.00;99089.88;6273253;20;2502425;-46
2024/01/17 01:31:22;;;;;;;;;65.67;47.00;;;;;-4.98;100.00;99102.75;6279233;20;2879575;-46
2024/01/17 01:33:52;;;;;;;;;47.33;33.67;;;;;-4.77;100.00;99096.47;6307640;20;2888995;-48
2024/01/17 01:36:22;;;;;;;;;51.67;41.00;;;;;-4.42;100.00;99090.03;6310144;20;2892184;-46
2024/01/17 01:38:50;;;;;;;;;47.00;40.00;;;;;-4.46;100.00;99089.19;6308731;20;2874866;-45
2024/01/17 01:41:19;;;;;;;;;60.50;49.00;;;;;-5.31;100.00;99086.47;6279205;20;2870049;-46
2024/01/17 01:43:49;;;;;;;;;64.00;49.00;;;;;-5.18;100.00;99076.78;6277551;20;2888965;-46
2024/01/17 01:46:26;;;;;;;;;57.50;46.50;;;;;-5.14;100.00;99068.00;6308038;20;2879469;-46
2024/01/17 01:48:55;;;;;;;;;68.00;48.50;;;;;-5.52;100.00;99069.19;6273990;20;2489847;-47
2024/01/17 01:51:27;;;;;;;;;28.17;13.17;;;;;-4.95;100.00;99057.38;6313068;20;1832566;-47
2024/01/17 01:54:02;;;;;;;;;70.00;48.00;;;;;-5.30;100.00;99050.69;6271783;20;2510772;-48
2024/01/17 01:56:36;;;;;;;;;75.00;48.33;;;;;-5.18;100.00;99050.63;6274360;20;3663889;-49
2024/01/17 01:59:06;;;;;;;;;71.00;54.50;;;;;-5.13;100.00;99045.34;6307556;20;2878480;-46
2024/01/17 02:01:35;;;;;;;;;79.50;56.00;;;;;-4.76;100.00;99043.25;6277959;20;2896125;-49
2024/01/17 02:04:05;;;;;;;;;67.00;52.00;;;;;-5.42;100.00;99040.34;6277083;20;2873247;-47
2024/01/17 02:06:35;;;;;;;;;69.50;52.50;;;;;-6.01;100.00;99040.75;6270528;20;2523230;-48
2024/01/17 02:09:05;;;;;;;;;53.00;45.00;;;;;-6.17;100.00;99033.88;6277062;20;2889884;-47
2024/01/17 02:11:37;;;;;;;;;64.67;48.00;;;;;-6.07;100.00;99032.97;6274291;20;2897339;-46
2024/01/17 02:14:06;;;;;;;;;47.00;34.00;;;;;-5.66;100.00;99026.59;6306033;20;2863200;-47
2024/01/17 02:16:34;;;;;;;;;45.00;36.00;;;;;-5.42;100.00;99030.75;6277284;20;2857113;-46
2024/01/17 02:19:03;;;;;;;;;51.00;39.00;;;;;-6.16;100.00;99022.56;6272965;20;2883674;-45
2024/01/17 02:21:31;;;;;;;;;47.00;38.00;;;;;-5.93;100.00;99024.16;6272812;20;2502459;-47
2024/01/17 02:24:23;;;;;;;;;45.00;38.00;;;;;-6.01;100.00;99024.22;6275480;20;2854440;-46
2024/01/17 02:26:51;;;;;;;;;54.00;37.50;;;;;-5.75;100.00;99021.41;6271768;20;2882630;-44
2024/01/17 02:29:21;;;;;;;;;42.67;33.33;;;;;-5.44;100.00;99010.72;6276250;20;3615899;-46
2024/01/17 02:31:51;;;;;;;;;56.33;40.00;;;;;-5.45;100.00;99008.97;6273978;20;2896282;-47
2024/01/17 02:34:19;;;;;;;;;42.50;37.00;;;;;-5.86;100.00;99012.78;6300032;20;2502354;-49
2024/01/17 02:36:48;;;;;;;;;58.80;42.80;;;;;-5.24;100.00;99003.59;6272001;20;3637863;-45
2024/01/17 02:39:18;;;;;;;;;52.67;37.67;;;;;-5.18;100.00;99003.50;6276851;20;2886967;-50
2024/01/17 02:41:46;;;;;;;;;56.00;46.00;;;;;-5.37;100.00;99001.94;6304880;20;2510693;-45
2024/01/17 02:44:15;;;;;;;;;53.00;45.50;;;;;-5.51;100.00;99002.03;6275787;20;2877354;-45
2024/01/17 02:46:44;;;;;;;;;65.00;47.00;;;;;-5.72;100.00;99000.47;6275764;20;2894127;-46
2024/01/17 02:49:19;;;;;;;;;59.67;46.67;;;;;-5.78;100.00;99005.75;6275127;20;3636765;-47
2024/01/17 02:51:48;;;;;;;;;62.00;42.00;;;;;-6.20;100.00;98997.31;6301645;20;2502415;-45
2024/01/17 02:54:16;;;;;;;;;45.00;37.00;;;;;-6.30;100.00;98987.78;6272222;20;2875277;-45
2024/01/17 02:56:44;;;;;;;;;56.40;42.60;;;;;-6.07;100.00;98978.09;6274885;20;3644060;-46
2024/01/17 02:59:14;;;;;;;;;56.00;40.00;;;;;-5.69;100.00;98965.59;6274184;20;2502503;-48
2024/01/17 03:01:46;;;;;;;;;61.67;48.00;;;;;-5.61;100.00;98980.34;6276963;20;2900441;-46
2024/01/17 03:04:15;;;;;;;;;58.00;45.50;;;;;-5.58;100.00;98976.81;6304755;20;2887782;-47
2024/01/17 03:06:45;;;;;;;;;61.00;43.80;;;;;-6.05;100.00;98985.94;6275089;20;3657589;-45
2024/01/17 03:09:14;;;;;;;;;50.60;40.00;;;;;-5.82;100.00;98988.31;6272349;20;3624252;-47
2024/01/17 03:11:42;;;;;;;;;57.50;46.00;;;;;-5.71;100.00;98989.16;6271584;20;2874264;-47
2024/01/17 03:14:10;;;;;;;;;67.00;48.00;;;;;-5.33;100.00;98988.81;6269872;20;2562812;-49
2024/01/17 03:16:38;;;;;;;;;65.50;48.50;;;;;-5.33;100.00;98995.78;6271915;20;2879576;-46
2024/01/17 03:19:07;;;;;;;;;63.20;46.20;;;;;-5.51;100.00;98988.97;6273091;20;3614927;-45
2024/01/17 03:21:37;;;;;;;;;59.50;47.00;;;;;-5.66;100.00;98995.22;6276006;20;2882587;-49
2024/01/17 03:24:07;;;;;;;;;70.33;44.33;;;;;-5.52;100.00;98988.09;6271666;20;2908747;-45
2024/01/17 03:26:36;;;;;;;;;63.00;51.00;;;;;-5.48;100.00;98983.72;6306341;20;2854449;-46
2024/01/17 03:29:05;;;;;;;;;66.50;49.00;;;;;-5.08;100.00;98978.13;6275958;20;2883612;-47
2024/01/17 03:31:34;;;;;;;;;64.00;43.67;;;;;-6.00;100.00;98968.47;6272273;20;3654456;-46
2024/01/17 03:34:02;;;;;;;;;72.50;52.00;;;;;-5.34;100.00;98966.16;6305601;20;2886777;-46
2024/01/17 03:36:31;;;;;;;;;75.50;57.00;;;;;-5.03;100.00;98973.69;6277286;20;2888886;-49
2024/01/17 03:38:59;;;;;;;;;80.00;54.00;;;;;-5.70;100.00;98976.94;6271861;20;2502866;-45
2024/01/17 03:41:28;;;;;;;;;79.00;54.00;;;;;-6.31;100.00;98978.25;6274866;20;2888822;-49
2024/01/17 03:43:58;;;;;;;;;71.50;53.00;;;;;-5.66;100.00;98974.28;6266721;20;2505504;-48
2024/01/17 03:46:28;;;;;;;;;67.00;46.00;;;;;-5.31;100.00;98966.13;6275270;20;2884810;-46
2024/01/17 03:48:57;;;;;;;;;65.00;48.00;;;;;-5.52;100.00;98967.19;6306369;20;2886738;-46
2024/01/17 03:51:27;;;;;;;;;56.20;47.20;;;;;-5.35;100.00;98963.53;6302011;20;3626287;-45
2024/01/17 03:53:56;;;;;;;;;70.00;54.00;;;;;-5.25;100.00;98953.88;6272343;20;2867011;-47
2024/01/17 03:56:25;;;;;;;;;83.60;61.00;;;;;-5.24;100.00;98964.34;6268926;20;3643008;-46
2024/01/17 03:58:53;;;;;;;;;76.00;52.00;;;;;-5.38;100.00;98963.56;6273655;20;2894094;-46
2024/01/17 04:01:21;;;;;;;;;60.00;42.00;;;;;-5.30;100.00;98959.13;6268932;20;2504450;-46
2024/01/17 04:03:49;;;;;;;;;71.00;54.00;;;;;-5.25;100.00;98953.88;6268168;20;2872254;-46
2024/01/17 04:06:17;;;;;;;;;69.00;49.00;;;;;-5.46;100.00;98950.56;6269346;20;2500381;-47
2024/01/17 04:08:45;;;;;;;;;67.33;44.33;;;;;-5.79;100.00;98946.50;6272876;20;3649266;-46
2024/01/17 04:11:14;;;;;;;;;51.00;44.00;;;;;-5.89;100.00;98948.31;6306110;20;2872225;-46
2024/01/17 04:13:43;;;;;;;;;72.50;52.00;;;;;-5.65;100.00;98941.16;6268931;20;2880531;-47
2024/01/17 04:16:12;;;;;;;;;57.33;46.00;;;;;-5.43;100.00;98944.44;6275790;20;2876914;-46
2024/01/17 04:18:41;;;;;;;;;59.20;47.00;;;;;-5.44;100.00;98953.19;6301456;20;3635763;-46
2024/01/17 04:21:16;;;;;;;;;74.00;52.00;;;;;-5.62;100.00;98954.22;6271990;20;2500254;-47
2024/01/17 04:23:46;;;;;;;;;85.67;61.00;;;;;-5.36;100.00;98956.59;6271688;20;3660701;-46
2024/01/17 04:26:24;;;;;;;;;76.00;58.00;;;;;-5.20;100.00;98946.84;6300272;20;3616937;-46
2024/01/17 04:28:54;;;;;;;;;77.60;60.00;;;;;-5.89;100.00;98940.47;6274614;20;3626356;-47
2024/01/17 04:31:31;;;;;;;;;75.00;54.33;;;;;-6.36;100.00;98927.78;6270337;20;2887799;-46
2024/01/17 04:34:04;;;;;;;;;89.00;62.67;;;;;-5.94;100.00;98937.06;6305724;20;2912971;-46
2024/01/17 04:36:34;;;;;;;;;76.40;54.40;;;;;-5.94;100.00;98926.59;6304808;20;3641959;-45
2024/01/17 04:39:04;;;;;;;;;88.00;63.67;;;;;-6.12;100.00;98917.16;6273861;20;2919173;-47
2024/01/17 04:41:32;;;;;;;;;78.00;60.00;;;;;-5.92;100.00;98909.16;6302010;20;2502499;-47
2024/01/17 04:44:01;;;;;;;;;75.40;56.00;;;;;-6.01;100.00;98914.47;6269474;20;3629817;-47
2024/01/17 04:46:30;;;;;;;;;77.60;59.60;;;;;-6.48;100.00;98908.66;6273903;20;3628366;-46
2024/01/17 04:49:00;;;;;;;;;74.80;55.00;;;;;-6.62;100.00;98905.28;6269648;20;3619028;-45
2024/01/17 04:51:29;;;;;;;;;69.60;55.60;;;;;-6.85;100.00;98903.63;6268102;20;3624213;-48
2024/01/17 04:53:58;;;;;;;;;68.60;54.00;;;;;-6.93;100.00;98900.19;6266656;20;3614219;-46
2024/01/17 04:56:27;;;;;;;;;73.40;52.40;;;;;-6.79;100.00;98897.53;6273649;20;3640927;-46
2024/01/17 04:58:57;;;;;;;;;67.00;48.00;;;;;-7.08;100.00;98895.06;6269960;20;2896166;-48
2024/01/17 05:01:26;;;;;;;;;60.00;42.60;;;;;-6.81;100.00;98890.59;6304386;20;3639889;-48
2024/01/17 05:03:54;;;;;;;;;66.00;46.00;;;;;-6.21;100.00;98901.56;6270475;20;2554972;-45
2024/01/17 05:06:22;;;;;;;;;70.00;52.00;;;;;-6.37;100.00;98892.97;6268338;20;2516979;-48
2024/01/17 05:08:51;;;;;;;;;74.20;56.40;;;;;-6.83;100.00;98887.13;6272963;20;3639800;-49
2024/01/17 05:11:25;;;;;;;;;80.60;53.40;;;;;-6.19;100.00;98881.50;6268188;20;3640873;-48
2024/01/17 05:13:55;;;;;;;;;81.67;54.67;;;;;-6.00;100.00;98880.50;6274978;20;2898271;-47
2024/01/17 05:16:24;;;;;;;;;75.00;54.50;;;;;-6.12;100.00;98870.13;6308368;20;2874270;-47
2024/01/17 05:18:52;;;;;;;;;93.00;60.00;;;;;-6.27;100.00;98871.09;6277805;20;2838835;-46
2024/01/17 05:21:20;;;;;;;;;68.00;50.00;;;;;-5.85;100.00;98863.75;6273548;20;2506524;-46
2024/01/17 05:23:49;;;;;;;;;72.40;52.40;;;;;-5.93;100.00;98869.97;6277866;20;3639849;-46
2024/01/17 05:26:17;;;;;;;;;77.50;57.50;;;;;-6.23;100.00;98862.38;6272453;20;2500301;-54
2024/01/17 05:28:44;;;;;;;;;79.00;60.50;;;;;-5.77;100.00;98861.94;6273845;20;2502500;-51
2024/01/17 05:31:15;;;;;;;;;71.80;52.00;;;;;-5.97;100.00;98870.00;6274837;20;3617995;-55
2024/01/17 05:33:45;;;;;;;;;76.20;54.60;;;;;-5.72;100.00;98869.75;6275315;20;3635780;-51
2024/01/17 05:36:14;;;;;;;;;75.00;58.00;;;;;-6.32;100.00;98866.78;6278579;20;2881799;-55
2024/01/17 05:38:43;;;;;;;;;73.20;56.80;;;;;-6.17;100.00;98871.91;6276613;20;3622262;-54
2024/01/17 05:41:12;;;;;;;;;73.33;52.67;;;;;-5.39;100.00;98873.78;6279092;20;3621126;-52
2024/01/17 05:43:40;;;;;;;;;68.50;50.00;;;;;-5.69;100.00;98868.84;6273333;20;2873207;-51
2024/01/17 05:46:09;;;;;;;;;69.50;51.50;;;;;-5.99;100.00;98871.75;6277630;20;2877344;-53
2024/01/17 05:48:39;;;;;;;;;79.67;54.33;;;;;-6.61;100.00;98880.91;6279703;20;2898792;-52
2024/01/17 05:51:08;;;;;;;;;79.40;53.20;;;;;-5.92;100.00;98871.66;6307099;20;3639882;-54
2024/01/17 05:53:38;;;;;;;;;92.00;60.75;;;;;-6.09;100.00;98875.31;6276001;20;4426291;-54
2024/01/17 05:56:07;;;;;;;;;75.40;59.60;;;;;-6.21;100.00;98871.06;6303944;20;3605557;-51
2024/01/17 05:58:35;;;;;;;;;74.00;54.50;;;;;-6.02;100.00;98874.41;6274067;20;2878439;-51
2024/01/17 06:01:04;;;;;;;;;73.67;53.33;;;;;-5.54;100.00;98872.19;6274196;20;2893101;-53
2024/01/17 06:03:33;;;;;;;;;74.80;57.00;;;;;-5.94;100.00;98883.94;6305402;20;3628424;-50
2024/01/17 06:06:02;;;;;;;;;66.00;52.00;;;;;-5.85;100.00;98878.59;6276979;20;2869071;-53
2024/01/17 06:08:32;;;;;;;;;95.00;66.17;;;;;-5.49;100.00;98871.28;6277332;20;3670099;-54
2024/01/17 06:11:01;;;;;;;;;82.00;61.67;;;;;-6.36;100.00;98857.25;6306180;20;2903511;-52
2024/01/17 06:13:30;;;;;;;;;73.00;53.00;;;;;-5.70;100.00;98848.84;6306280;20;2881513;-53
2024/01/17 06:15:59;;;;;;;;;66.50;52.00;;;;;-5.26;100.00;98850.97;6277195;20;2878421;-53
2024/01/17 06:18:28;;;;;;;;;73.00;57.00;;;;;-5.84;100.00;98856.81;6274665;20;2887771;-54
2024/01/17 06:20:58;;;;;;;;;79.00;51.67;;;;;-5.71;100.00;98845.34;6274014;20;2893115;-54
2024/01/17 06:23:29;;;;;;;;;69.25;51.75;;;;;-5.63;100.00;98840.91;6308816;20;3628415;-51
2024/01/17 06:25:59;;;;;;;;;77.00;54.25;;;;;-5.79;100.00;98842.81;6307983;20;3635728;-51
2024/01/17 06:28:29;;;;;;;;;79.00;54.33;;;;;-5.64;100.00;98839.16;6308413;20;2896206;-54
2024/01/17 06:30:58;;;;;;;;;87.33;60.00;;;;;-5.11;100.00;98842.06;6308212;20;2899227;-54
2024/01/17 06:33:28;;;;;;;;;90.00;64.00;;;;;-4.63;100.00;98850.19;6307162;20;3651410;-52
2024/01/17 06:35:58;;;;;;;;;82.00;60.00;;;;;-4.34;100.00;98851.53;6306309;20;3654438;-54
2024/01/17 06:38:26;;;;;;;;;56.00;51.50;;;;;-4.44;100.00;98866.50;6304623;20;2502393;-52
2024/01/17 06:40:55;;;;;;;;;79.80;56.20;;;;;-4.54;100.00;98859.66;6275399;20;3630496;-54
2024/01/17 06:43:23;;;;;;;;;70.00;51.00;;;;;-4.54;100.00;98843.94;6273305;20;2501374;-49
2024/01/17 06:45:52;;;;;;;;;79.00;59.33;;;;;-4.47;100.00;98849.06;6278156;20;2879531;-55
2024/01/17 06:48:22;;;;;;;;;79.00;56.00;;;;;-4.65;100.00;98854.56;6308510;20;2884661;-54
2024/01/17 06:50:51;;;;;;;;;60.50;48.00;;;;;-4.10;100.00;98855.50;6307396;20;2867023;-51
2024/01/17 06:53:21;;;;;;;;;45.00;40.00;;;;;-3.85;100.00;98845.47;6273928;20;2867956;-54
2024/01/17 06:55:50;;;;;;;;;66.50;48.00;;;;;-3.84;100.00;98848.06;6274662;20;2495053;-50
2024/01/17 06:58:19;;;;;;;;;70.00;48.50;;;;;-3.91;100.00;98846.44;6278328;20;2882557;-51
2024/01/17 07:00:49;;;;;;;;;64.67;43.00;;;;;-3.82;100.00;98854.16;6275115;20;3667964;-52
2024/01/17 07:03:18;;;;;;;;;45.50;38.00;;;;;-3.60;100.00;98857.25;6308762;20;2857642;-52
2024/01/17 07:05:46;;;;;;;;;59.00;45.50;;;;;-3.68;100.00;98856.53;6273093;20;2518009;-53
2024/01/17 07:08:15;;;;;;;;;66.50;50.00;;;;;-3.44;100.00;98864.88;6277213;20;2872177;-53
2024/01/17 07:10:43;;;;;;;;;79.00;58.00;;;;;-3.46;100.00;98857.00;6266084;20;2879481;-53
2024/01/17 07:13:13;;;;;;;;;70.00;48.33;;;;;-3.20;100.00;98847.78;6268915;20;3646263;-53
2024/01/17 07:15:42;;;;;;;;;63.50;49.00;;;;;-4.32;100.00;98845.34;6301439;20;2879483;-50
2024/01/17 07:18:11;;;;;;;;;42.00;27.33;;;;;-4.17;100.00;98846.00;6274757;20;2883815;-52
2024/01/17 07:20:39;;;;;;;;;57.00;48.00;;;;;-4.26;100.00;98840.03;6305743;20;2614966;-50
2024/01/17 07:23:10;;;;;;;;;58.00;48.00;;;;;-4.10;100.00;98837.16;6274812;20;2859775;-50
2024/01/17 07:25:39;;;;;;;;;75.50;54.00;;;;;-4.12;100.00;98824.06;6272299;20;2877419;-51
2024/01/17 07:28:08;;;;;;;;;73.00;52.00;;;;;-3.67;100.00;98833.78;6276156;20;2869176;-54
2024/01/17 07:30:35;;;;;;;;;47.00;38.50;;;;;-3.66;100.00;98822.41;6268559;20;2502821;-52
2024/01/17 07:33:04;;;;;;;;;38.00;29.00;;;;;-3.82;100.00;98820.06;6272932;20;2858614;-53
2024/01/17 07:35:33;;;;;;;;;73.50;54.00;;;;;-3.49;100.00;98809.84;6272448;20;2876306;-50
2024/01/17 07:38:02;;;;;;;;;48.00;45.00;;;;;-3.28;100.00;98799.81;6272482;20;2502383;-51
2024/01/17 07:40:31;;;;;;;;;70.00;55.00;;;;;-3.36;100.00;98802.59;6274422;20;2859652;-53
2024/01/17 07:43:00;;;;;;;;;56.00;51.50;;;;;-3.21;100.00;98796.16;6274047;20;2495123;-51
2024/01/17 07:45:28;;;;;;;;;71.00;52.00;;;;;-3.11;100.00;98802.94;6273688;20;2870121;-52
2024/01/17 07:47:57;;;;;;;;;71.67;48.67;;;;;-2.79;100.00;98807.53;6272479;20;3644047;-54
2024/01/17 07:50:26;;;;;;;;;80.50;61.00;;;;;-2.81;100.00;98808.47;6304977;20;2883761;-50
2024/01/17 07:52:55;;;;;;;;;80.00;58.00;;;;;-2.79;100.00;98806.66;6268827;20;2502553;-54
2024/01/17 07:55:24;;;;;;;;;90.67;66.67;;;;;-2.64;100.00;98793.19;6274545;20;2894024;-53
2024/01/17 07:57:53;;;;;;;;;78.00;56.00;;;;;-2.45;100.00;98799.75;6303468;20;2883624;-52
2024/01/17 08:00:22;;;;;;;;;77.00;57.00;;;;;-2.82;100.00;98793.59;6274762;20;2889890;-52
2024/01/17 08:02:51;;;;;;;;;66.00;53.00;;;;;-2.61;100.00;98787.84;6273558;20;2856598;-52
2024/01/17 08:05:19;;;;;;;;;59.00;39.50;;;;;-2.93;100.00;98780.69;6271965;20;2502379;-54
2024/01/17 08:07:49;;;;;;;;;59.00;42.67;;;;;-3.05;100.00;98784.47;6273432;20;2881597;-54
2024/01/17 08:10:18;;;;;;;;;58.50;45.00;;;;;-2.61;100.00;98777.34;6305081;20;2878413;-53
2024/01/17 08:12:45;;;;;;;;;73.00;55.00;;;;;-2.52;100.00;98782.41;6268419;20;2496233;-50
2024/01/17 08:15:13;;;;;;;;;66.00;48.00;;;;;-2.42;100.00;98788.31;6268807;20;2510709;-54
2024/01/17 08:17:44;;;;;;;;;48.50;42.00;;;;;-2.24;100.00;98792.25;6271488;20;2871107;-51
2024/01/17 08:20:16;;;;;;;;;66.00;51.00;;;;;-2.37;100.00;98790.81;6271882;20;2510736;-53
2024/01/17 08:22:45;;;;;;;;;68.50;49.00;;;;;-2.70;100.00;98790.72;6273582;20;2868135;-52
2024/01/17 08:25:14;;;;;;;;;63.50;44.00;;;;;-2.30;100.00;98789.78;6271230;20;2502355;-54
2024/01/17 08:27:42;;;;;;;;;75.50;58.00;;;;;-2.31;100.00;98786.28;6270739;20;2502378;-52
2024/01/17 08:30:11;;;;;;;;;39.00;35.00;;;;;-2.14;100.00;98798.16;6271943;20;2510718;-52
2024/01/17 08:32:40;;;;;;;;;68.00;50.00;;;;;-2.37;100.00;98806.56;6273866;20;2872237;-51
2024/01/17 08:35:10;;;;;;;;;70.00;55.00;;;;;-2.35;100.00;98810.91;6268275;20;2502361;-53
2024/01/17 08:37:40;;;;;;;;;72.50;55.50;;;;;-2.02;100.00;98801.34;6270117;20;2869019;-51
2024/01/17 08:40:09;;;;;;;;;82.00;59.00;;;;;-2.29;100.00;98783.59;6266117;20;2500374;-51
2024/01/17 08:42:39;;;;;;;;;70.00;52.00;;;;;-1.91;100.00;98779.16;6272859;20;2876365;-51
2024/01/17 08:45:08;;;;;;;;;51.00;45.50;;;;;-2.03;100.00;98770.69;6268012;20;2504463;-54
2024/01/17 08:47:36;;;;;;;;;41.00;39.00;;;;;-1.83;100.00;98777.19;6270252;20;2508674;-53
2024/01/17 08:50:06;;;;;;;;;51.50;38.50;;;;;-1.81;100.00;98773.63;6274500;20;2500343;-53
2024/01/17 08:52:34;;;;;;;;;49.00;35.00;;;;;-2.06;100.00;98775.16;6275891;20;2500358;-52
2024/01/17 08:55:02;;;;;;;;;45.00;37.00;;;;;-1.67;100.00;98775.03;6273237;20;2500386;-52
2024/01/17 08:57:31;;;;;;;;;54.00;39.00;;;;;-2.12;100.00;98770.91;6278625;20;2876450;-54
2024/01/17 09:00:00;;;;;;;;;36.67;30.67;;;;;-1.67;100.00;98772.38;6279690;20;3605485;-52
2024/01/17 09:02:29;;;;;;;;;43.00;31.00;;;;;-1.68;100.00;98766.28;6282356;20;3600248;-53
2024/01/17 09:04:58;;;;;;;;;37.00;32.33;;;;;-1.63;100.00;98759.13;6281303;20;3581537;-52
2024/01/17 09:07:26;;;;;;;;;41.00;33.00;;;;;-1.65;100.00;98770.59;6277037;20;2500458;-51
2024/01/17 09:09:58;;;;;;;;;41.50;31.00;;;;;-1.68;100.00;98774.16;6276048;20;2500337;-52
2024/01/17 09:12:27;;;;;;;;;34.33;23.33;;;;;-1.78;100.00;98759.53;6280953;20;3609675;-53
2024/01/17 09:14:55;;;;;;;;;40.00;31.00;;;;;-1.70;100.00;98751.44;6276802;20;2858683;-54
2024/01/17 09:17:23;;;;;;;;;76.50;53.00;;;;;-1.56;100.00;98750.13;6277444;20;2495094;-53
2024/01/17 09:19:52;;;;;;;;;47.00;39.50;;;;;-1.72;100.00;98748.81;6278938;20;2869031;-51
2024/01/17 09:22:20;;;;;;;;;41.00;33.50;;;;;-1.42;100.00;98735.72;6276908;20;2500823;-54
2024/01/17 09:24:48;;;;;;;;;47.00;41.50;;;;;-1.19;100.00;98722.75;6274747;20;2508689;-51
2024/01/17 09:27:16;;;;;;;;;46.00;40.00;;;;;-1.45;100.00;98722.63;6274077;20;2500324;-53
2024/01/17 09:29:45;;;;;;;;;37.00;34.67;;;;;-1.47;100.00;98721.84;6280458;20;3580761;-48
2024/01/17 09:32:14;;;;;;;;;49.50;41.00;;;;;-1.44;100.00;98716.50;6277930;20;2875266;-52
2024/01/17 09:34:47;;;;;;;;;54.00;47.50;;;;;-1.32;100.00;98708.22;6278283;20;2843058;-53
2024/01/17 09:37:17;;;;;;;;;55.00;43.50;;;;;-1.66;100.00;98706.56;6275929;20;2874319;-50
2024/01/17 09:39:47;;;;;;;;;52.00;44.50;;;;;-1.66;100.00;98695.16;6278851;20;2881666;-54
2024/01/17 09:42:16;;;;;;;;;40.50;32.50;;;;;-1.42;100.00;98696.22;6279217;20;2845115;-52
2024/01/17 09:44:45;;;;;;;;;49.00;37.00;;;;;-1.24;100.00;98693.03;6276071;20;2870256;-52
2024/01/17 09:47:15;;;;;;;;;43.00;36.00;;;;;-1.38;100.00;98684.72;6275071;20;2500293;-52
2024/01/17 09:49:45;;;;;;;;;48.00;41.33;;;;;-0.68;100.00;98679.03;6278610;20;3606494;-50
2024/01/17 09:52:18;;;;;;;;;53.33;43.00;;;;;-1.44;100.00;98663.84;6277580;20;2878464;-50
2024/01/17 09:54:47;;;;;;;;;51.00;43.50;;;;;-1.43;100.00;98666.41;6305072;20;2872287;-52
2024/01/17 09:57:24;;;;;;;;;47.00;42.00;;;;;-1.47;100.00;98664.78;6276411;20;2862843;-51
2024/01/17 10:00:06;;;;;;;;;53.00;44.00;;;;;-1.09;100.00;98669.81;6271631;20;2500303;-51
2024/01/17 10:02:38;;;;;;;;;55.50;47.00;;;;;-0.70;100.00;98663.28;6279723;20;2853973;-51
2024/01/17 10:05:11;;;;;;;;;51.00;40.50;;;;;-0.66;100.00;98653.47;6272265;20;2506586;-51
2024/01/17 10:07:39;;;;;;;;;45.50;32.50;;;;;-0.55;100.00;98650.50;6272590;20;2500294;-48
2024/01/17 10:10:09;;;;;;;;;57.33;45.67;;;;;-0.53;100.00;98651.31;6275601;20;3630499;-48
2024/01/17 10:12:41;;;;;;;;;48.33;39.00;;;;;-0.77;100.00;98634.53;6307315;20;2875348;-49
2024/01/17 10:15:17;;;;;;;;;52.00;37.50;;;;;-0.65;100.00;98628.84;6307978;20;2876386;-48
2024/01/17 10:17:44;;;;;;;;;42.50;36.00;;;;;-1.19;100.00;98630.56;6273728;20;2500297;-53
2024/01/17 10:20:13;;;;;;;;;37.00;29.50;;;;;-1.12;100.00;98621.56;6277309;20;2500298;-52
2024/01/17 10:22:45;;;;;;;;;40.00;27.50;;;;;-0.63;100.00;98612.97;6278875;20;2870102;-50
2024/01/17 10:25:13;;;;;;;;;37.50;30.50;;;;;-0.57;100.00;98607.53;6276950;20;2858606;-51
2024/01/17 10:27:41;;;;;;;;;43.50;36.00;;;;;-1.10;100.00;98605.75;6276715;20;2500296;-50
2024/01/17 10:30:11;;;;;;;;;36.50;29.00;;;;;-1.01;100.00;98599.31;6274742;20;2500307;-52
2024/01/17 10:32:41;;;;;;;;;46.67;38.00;;;;;-0.55;100.00;98584.59;6280308;20;3588821;-53
2024/01/17 10:35:12;;;;;;;;;86.00;62.00;;;;;-0.79;100.00;98576.63;6270847;20;3655506;-51
2024/01/17 10:37:41;;;;;;;;;52.00;45.50;;;;;-0.59;100.00;98572.44;6305458;20;2843001;-51
2024/01/17 10:40:11;;;;;;;;;59.00;43.00;;;;;-0.63;100.00;98569.06;6275215;20;2879445;-49
2024/01/17 10:42:40;;;;;;;;;33.00;31.50;;;;;-0.48;100.00;98567.63;6273099;20;2500300;-51
2024/01/17 10:45:23;;;;;;;;;86.33;63.67;;;;;0.06;100.00;98560.44;6273911;20;3642978;-49
2024/01/17 10:47:51;;;;;;;;;65.00;48.50;;;;;-0.83;100.00;98551.28;6308459;20;2500712;-53
2024/01/17 10:50:20;;;;;;;;;89.00;62.67;;;;;-0.50;100.00;98536.06;6276110;20;3654412;-52
2024/01/17 10:52:52;;;;;;;;;50.00;40.50;;;;;-0.99;100.00;98531.63;6309106;20;2871120;-49
2024/01/17 10:55:23;;;;;;;;;65.00;47.00;;;;;-0.64;100.00;98537.47;6269399;20;2498204;-54
2024/01/17 10:57:59;;;;;;;;;66.00;48.50;;;;;-0.40;100.00;98518.13;6272284;20;2497579;-52
2024/01/17 11:00:31;;;;;;;;;75.00;57.50;;;;;-0.53;100.00;98507.16;6275270;20;2877427;-53
2024/01/17 11:03:01;;;;;;;;;72.50;53.00;;;;;-0.34;100.00;98507.38;6273449;20;2468076;-51
2024/01/17 11:05:48;;;;;;;;;74.50;56.50;;;;;-0.45;100.00;98498.97;6276432;20;2872542;-49